LTAC/ESB METAR and TAF weather

Enter ICAO airport designator
Station Type Date Time Source
LTAC METAR 2021/10/24 21:20 UTC NOAA

LTAC 242120Z 01012KT 9999 SCT040 SCT100 09/03 Q1024 NOSIG


Station Type Date Time Source
LTAC Decoded METAR 2021/10/24 21:20 UTC NOAA

Ankara / Esenboga, Turkey (LTAC) 40-07N 032-59E 949M
Oct 24, 2021 - 05:20 PM EDT / 2021.10.24 2120 UTC
Wind: from the N (010 degrees) at 14 MPH (12 KT):0
Visibility: greater than 7 mile(s):0
Sky conditions: partly cloudy
Temperature: 48 F (9 C)
Dew Point: 37 F (3 C)
Relative Humidity: 66%
Pressure (altimeter): 30.24 in. Hg (1024 hPa)
ob: LTAC 242120Z 01012KT 9999 SCT040 SCT100 09/03 Q1024 NOSIG
cycle: 21

Station Type Date Time Source
LTAC TAF 2021/10/24 18:03 UTC NOAA

TAF TAF LTAC 241640Z 2418/2518 01009KT 9999 SCT040

Example: see airport list